sensor_id;sensor_type;location;lat;lon;timestamp;pressure;altitude;pressure_sealevel;temperature;humidity
11525;BME280;5819;49.648;8.330;2023-04-01T00:00:05;98788.47;;;10.43;94.89
11525;BME280;5819;49.648;8.330;2023-04-01T00:02:37;98797.72;;;10.47;94.45
11525;BME280;5819;49.648;8.330;2023-04-01T00:05:07;98793.97;;;10.38;94.32
11525;BME280;5819;49.648;8.330;2023-04-01T00:07:36;98786.78;;;10.42;94.49
11525;BME280;5819;49.648;8.330;2023-04-01T00:10:07;98784.59;;;10.36;94.82
11525;BME280;5819;49.648;8.330;2023-04-01T00:12:37;98787.59;;;10.29;95.08
11525;BME280;5819;49.648;8.330;2023-04-01T00:15:06;98790.81;;;10.33;95.05
11525;BME280;5819;49.648;8.330;2023-04-01T00:17:34;98785.63;;;10.33;94.44
11525;BME280;5819;49.648;8.330;2023-04-01T00:20:03;98780.84;;;10.27;95.04
11525;BME280;5819;49.648;8.330;2023-04-01T00:22:30;98781.38;;;10.45;93.71
11525;BME280;5819;49.648;8.330;2023-04-01T00:24:59;98781.59;;;10.42;93.77
11525;BME280;5819;49.648;8.330;2023-04-01T00:27:28;98764.41;;;10.39;93.36
11525;BME280;5819;49.648;8.330;2023-04-01T00:29:56;98765.25;;;10.40;93.24
11525;BME280;5819;49.648;8.330;2023-04-01T00:32:24;98776.69;;;10.37;93.44
11525;BME280;5819;49.648;8.330;2023-04-01T00:34:53;98779.28;;;10.24;95.27
11525;BME280;5819;49.648;8.330;2023-04-01T00:37:21;98788.44;;;10.30;94.76
11525;BME280;5819;49.648;8.330;2023-04-01T00:39:49;98776.47;;;10.27;94.50
11525;BME280;5819;49.648;8.330;2023-04-01T00:42:18;98775.75;;;10.25;94.74
11525;BME280;5819;49.648;8.330;2023-04-01T00:44:51;98782.19;;;10.32;94.91
11525;BME280;5819;49.648;8.330;2023-04-01T00:47:20;98776.69;;;10.37;93.82
11525;BME280;5819;49.648;8.330;2023-04-01T00:49:51;98774.53;;;10.31;94.54
11525;BME280;5819;49.648;8.330;2023-04-01T00:52:22;98772.31;;;10.38;94.32
11525;BME280;5819;49.648;8.330;2023-04-01T00:54:55;98776.06;;;10.33;93.74
11525;BME280;5819;49.648;8.330;2023-04-01T00:57:29;98774.94;;;10.38;93.64
11525;BME280;5819;49.648;8.330;2023-04-01T01:00:00;98780.34;;;10.35;93.39
11525;BME280;5819;49.648;8.330;2023-04-01T01:02:28;98771.59;;;10.48;92.94
11525;BME280;5819;49.648;8.330;2023-04-01T01:04:57;98783.25;;;10.43;93.10
11525;BME280;5819;49.648;8.330;2023-04-01T01:07:33;98783.44;;;10.40;93.53
11525;BME280;5819;49.648;8.330;2023-04-01T01:10:07;98782.59;;;10.39;93.54
11525;BME280;5819;49.648;8.330;2023-04-01T01:12:42;98774.31;;;10.34;94.55
11525;BME280;5819;49.648;8.330;2023-04-01T01:15:18;98781.06;;;10.37;93.89
11525;BME280;5819;49.648;8.330;2023-04-01T01:17:58;98774.59;;;10.29;93.68
11525;BME280;5819;49.648;8.330;2023-04-01T01:20:48;98780.66;;;10.43;92.62
11525;BME280;5819;49.648;8.330;2023-04-01T01:23:53;98772.63;;;10.33;93.97
11525;BME280;5819;49.648;8.330;2023-04-01T01:26:39;98762.66;;;10.27;94.17
11525;BME280;5819;49.648;8.330;2023-04-01T01:29:16;98773.03;;;10.40;93.90
11525;BME280;5819;49.648;8.330;2023-04-01T01:31:51;98773.78;;;10.42;93.03
11525;BME280;5819;49.648;8.330;2023-04-01T01:34:27;98768.47;;;10.30;94.02
11525;BME280;5819;49.648;8.330;2023-04-01T01:37:01;98770.03;;;10.33;93.52
11525;BME280;5819;49.648;8.330;2023-04-01T01:39:33;98775.97;;;10.35;93.07
11525;BME280;5819;49.648;8.330;2023-04-01T01:42:04;98767.84;;;10.40;92.92
11525;BME280;5819;49.648;8.330;2023-04-01T01:44:35;98760.88;;;10.40;92.79
11525;BME280;5819;49.648;8.330;2023-04-01T01:47:05;98751.63;;;10.36;93.59
11525;BME280;5819;49.648;8.330;2023-04-01T01:49:34;98747.19;;;10.38;94.16
11525;BME280;5819;49.648;8.330;2023-04-01T01:52:04;98751.94;;;10.31;94.76
11525;BME280;5819;49.648;8.330;2023-04-01T01:54:33;98756.41;;;10.29;95.51
11525;BME280;5819;49.648;8.330;2023-04-01T01:57:04;98758.78;;;10.20;95.91
11525;BME280;5819;49.648;8.330;2023-04-01T01:59:38;98756.94;;;10.35;95.33
11525;BME280;5819;49.648;8.330;2023-04-01T02:02:10;98751.84;;;10.33;95.40
11525;BME280;5819;49.648;8.330;2023-04-01T02:04:42;98753.06;;;10.27;96.58
11525;BME280;5819;49.648;8.330;2023-04-01T02:07:16;98759.00;;;10.29;94.68
11525;BME280;5819;49.648;8.330;2023-04-01T02:09:46;98756.19;;;10.32;95.05
11525;BME280;5819;49.648;8.330;2023-04-01T02:12:15;98750.69;;;10.37;95.27
11525;BME280;5819;49.648;8.330;2023-04-01T02:14:49;98747.78;;;10.42;95.98
11525;BME280;5819;49.648;8.330;2023-04-01T02:17:21;98753.50;;;10.34;97.21
11525;BME280;5819;49.648;8.330;2023-04-01T02:19:53;98760.25;;;10.24;97.25
11525;BME280;5819;49.648;8.330;2023-04-01T02:22:28;98758.47;;;10.24;96.02
11525;BME280;5819;49.648;8.330;2023-04-01T02:25:00;98755.06;;;10.37;95.24
11525;BME280;5819;49.648;8.330;2023-04-01T02:27:30;98766.56;;;10.20;96.35
11525;BME280;5819;49.648;8.330;2023-04-01T02:29:59;98762.75;;;10.25;95.90
11525;BME280;5819;49.648;8.330;2023-04-01T02:32:28;98770.22;;;10.17;96.87
11525;BME280;5819;49.648;8.330;2023-04-01T02:34:58;98766.97;;;10.14;97.78
11525;BME280;5819;49.648;8.330;2023-04-01T02:37:31;98767.19;;;10.11;97.25
11525;BME280;5819;49.648;8.330;2023-04-01T02:40:03;98761.03;;;10.12;97.84
11525;BME280;5819;49.648;8.330;2023-04-01T02:42:33;98768.59;;;10.02;98.30
11525;BME280;5819;49.648;8.330;2023-04-01T02:45:01;98761.03;;;10.12;98.18
11525;BME280;5819;49.648;8.330;2023-04-01T02:47:30;98769.53;;;10.01;99.26
11525;BME280;5819;49.648;8.330;2023-04-01T02:49:58;98781.25;;;9.94;100.00
11525;BME280;5819;49.648;8.330;2023-04-01T02:52:27;98767.22;;;9.97;100.00
11525;BME280;5819;49.648;8.330;2023-04-01T02:55:02;98767.53;;;9.92;100.00
11525;BME280;5819;49.648;8.330;2023-04-01T02:57:32;98760.66;;;9.91;100.00
11525;BME280;5819;49.648;8.330;2023-04-01T03:00:00;98766.06;;;9.88;100.00
11525;BME280;5819;49.648;8.330;2023-04-01T03:02:28;98765.06;;;10.03;100.00
11525;BME280;5819;49.648;8.330;2023-04-01T03:04:57;98763.13;;;10.07;100.00
11525;BME280;5819;49.648;8.330;2023-04-01T03:07:24;98760.06;;;10.00;100.00
11525;BME280;5819;49.648;8.330;2023-04-01T03:09:52;98758.94;;;10.04;100.00
11525;BME280;5819;49.648;8.330;2023-04-01T03:12:22;98751.72;;;9.95;100.00
11525;BME280;5819;49.648;8.330;2023-04-01T03:14:51;98748.00;;;9.99;100.00
11525;BME280;5819;49.648;8.330;2023-04-01T03:17:18;98752.25;;;9.87;100.00
11525;BME280;5819;49.648;8.330;2023-04-01T03:19:46;98747.59;;;9.93;100.00
11525;BME280;5819;49.648;8.330;2023-04-01T03:22:15;98746.25;;;10.00;100.00
11525;BME280;5819;49.648;8.330;2023-04-01T03:24:43;98757.34;;;9.89;100.00
11525;BME280;5819;49.648;8.330;2023-04-01T03:27:11;98758.19;;;9.90;100.00
11525;BME280;5819;49.648;8.330;2023-04-01T03:29:40;98758.72;;;9.95;100.00
11525;BME280;5819;49.648;8.330;2023-04-01T03:32:08;98750.22;;;10.05;100.00
11525;BME280;5819;49.648;8.330;2023-04-01T03:34:37;98758.94;;;10.04;100.00
11525;BME280;5819;49.648;8.330;2023-04-01T03:37:06;98757.09;;;10.06;100.00
11525;BME280;5819;49.648;8.330;2023-04-01T03:39:34;98752.75;;;10.19;99.58
11525;BME280;5819;49.648;8.330;2023-04-01T03:42:02;98748.44;;;10.06;99.98
11525;BME280;5819;49.648;8.330;2023-04-01T03:44:31;98758.38;;;9.99;100.00
11525;BME280;5819;49.648;8.330;2023-04-01T03:47:01;98753.09;;;10.01;100.00
11525;BME280;5819;49.648;8.330;2023-04-01T03:49:29;98759.38;;;10.11;99.19
11525;BME280;5819;49.648;8.330;2023-04-01T03:51:58;98766.34;;;10.10;99.08
11525;BME280;5819;49.648;8.330;2023-04-01T03:54:26;98760.41;;;10.08;99.16
11525;BME280;5819;49.648;8.330;2023-04-01T03:56:54;98764.75;;;10.08;98.94
11525;BME280;5819;49.648;8.330;2023-04-01T03:59:24;98756.78;;;10.11;98.91
11525;BME280;5819;49.648;8.330;2023-04-01T04:01:52;98763.59;;;10.26;97.35
11525;BME280;5819;49.648;8.330;2023-04-01T04:04:22;98764.75;;;10.08;98.35
11525;BME280;5819;49.648;8.330;2023-04-01T04:06:50;98759.16;;;10.14;97.93
11525;BME280;5819;49.648;8.330;2023-04-01T04:09:20;98758.44;;;10.12;97.80
11525;BME280;5819;49.648;8.330;2023-04-01T04:11:49;98752.59;;;10.08;98.43
11525;BME280;5819;49.648;8.330;2023-04-01T04:14:17;98755.19;;;10.08;98.94
11525;BME280;5819;49.648;8.330;2023-04-01T04:16:46;98753.72;;;10.31;97.16
11525;BME280;5819;49.648;8.330;2023-04-01T04:19:14;98753.41;;;10.23;97.23
11525;BME280;5819;49.648;8.330;2023-04-01T04:21:44;98758.25;;;10.27;96.75
11525;BME280;5819;49.648;8.330;2023-04-01T04:24:13;98748.94;;;10.38;96.75
11525;BME280;5819;49.648;8.330;2023-04-01T04:27:02;98762.97;;;10.48;95.68
11525;BME280;5819;49.648;8.330;2023-04-01T04:29:30;98759.53;;;10.60;94.27
11525;BME280;5819;49.648;8.330;2023-04-01T04:31:59;98754.97;;;10.51;95.04
11525;BME280;5819;49.648;8.330;2023-04-01T04:34:27;98752.34;;;10.25;96.79
11525;BME280;5819;49.648;8.330;2023-04-01T04:36:57;98758.91;;;10.44;97.26
11525;BME280;5819;49.648;8.330;2023-04-01T04:39:29;98757.97;;;10.32;97.45
11525;BME280;5819;49.648;8.330;2023-04-01T04:41:57;98755.72;;;10.13;99.02
11525;BME280;5819;49.648;8.330;2023-04-01T04:44:25;98761.28;;;10.21;98.07
11525;BME280;5819;49.648;8.330;2023-04-01T04:46:54;98751.84;;;10.33;98.59
11525;BME280;5819;49.648;8.330;2023-04-01T04:49:25;98757.34;;;10.28;99.16
11525;BME280;5819;49.648;8.330;2023-04-01T04:51:52;98774.38;;;10.20;99.33
11525;BME280;5819;49.648;8.330;2023-04-01T04:54:25;98760.25;;;10.24;100.00
11525;BME280;5819;49.648;8.330;2023-04-01T04:56:58;98763.06;;;10.21;100.00
11525;BME280;5819;49.648;8.330;2023-04-01T04:59:30;98771.59;;;10.23;100.00
11525;BME280;5819;49.648;8.330;2023-04-01T05:02:04;98765.66;;;10.21;100.00
11525;BME280;5819;49.648;8.330;2023-04-01T05:04:34;98771.31;;;10.13;100.00
11525;BME280;5819;49.648;8.330;2023-04-01T05:07:04;98764.41;;;10.26;100.00
11525;BME280;5819;49.648;8.330;2023-04-01T05:09:34;98767.53;;;10.31;100.00
11525;BME280;5819;49.648;8.330;2023-04-01T05:12:03;98763.78;;;10.23;100.00
11525;BME280;5819;49.648;8.330;2023-04-01T05:14:51;98776.72;;;10.10;100.00
11525;BME280;5819;49.648;8.330;2023-04-01T05:17:19;98762.00;;;10.23;100.00
11525;BME280;5819;49.648;8.330;2023-04-01T05:19:47;98759.84;;;10.03;100.00
11525;BME280;5819;49.648;8.330;2023-04-01T05:22:14;98766.22;;;10.12;100.00
11525;BME280;5819;49.648;8.330;2023-04-01T05:24:44;98776.09;;;10.07;100.00
11525;BME280;5819;49.648;8.330;2023-04-01T05:27:13;98758.31;;;10.01;100.00
11525;BME280;5819;49.648;8.330;2023-04-01T05:29:42;98748.78;;;10.14;100.00
11525;BME280;5819;49.648;8.330;2023-04-01T05:32:31;98754.34;;;9.95;100.00
11525;BME280;5819;49.648;8.330;2023-04-01T05:34:59;98761.66;;;10.03;100.00
11525;BME280;5819;49.648;8.330;2023-04-01T05:37:28;98747.53;;;10.07;100.00
11525;BME280;5819;49.648;8.330;2023-04-01T05:39:57;98739.41;;;10.11;100.00
11525;BME280;5819;49.648;8.330;2023-04-01T05:42:26;98752.22;;;10.14;100.00
11525;BME280;5819;49.648;8.330;2023-04-01T05:44:54;98742.00;;;10.11;100.00
11525;BME280;5819;49.648;8.330;2023-04-01T05:47:41;98749.22;;;10.20;100.00
11525;BME280;5819;49.648;8.330;2023-04-01T05:50:10;98745.44;;;10.12;100.00
11525;BME280;5819;49.648;8.330;2023-04-01T05:52:38;98750.06;;;10.21;100.00
11525;BME280;5819;49.648;8.330;2023-04-01T05:55:08;98740.91;;;10.15;100.00
11525;BME280;5819;49.648;8.330;2023-04-01T05:57:36;98740.91;;;10.15;100.00
11525;BME280;5819;49.648;8.330;2023-04-01T06:00:06;98733.13;;;10.41;99.82
11525;BME280;5819;49.648;8.330;2023-04-01T06:02:40;98743.53;;;10.41;99.19
11525;BME280;5819;49.648;8.330;2023-04-01T06:05:15;98738.22;;;10.42;98.20
11525;BME280;5819;49.648;8.330;2023-04-01T06:07:44;98747.06;;;10.40;98.08
11525;BME280;5819;49.648;8.330;2023-04-01T06:10:17;98732.09;;;10.30;99.30
11525;BME280;5819;49.648;8.330;2023-04-01T06:12:53;98743.94;;;10.22;99.37
11525;BME280;5819;49.648;8.330;2023-04-01T06:15:33;98737.16;;;10.19;99.75
11525;BME280;5819;49.648;8.330;2023-04-01T06:18:38;98744.97;;;10.32;99.52
11525;BME280;5819;49.648;8.330;2023-04-01T06:21:26;98741.44;;;10.33;99.10
11525;BME280;5819;49.648;8.330;2023-04-01T06:24:14;98740.00;;;10.29;99.80
11525;BME280;5819;49.648;8.330;2023-04-01T06:26:54;98736.88;;;10.62;98.10
11525;BME280;5819;49.648;8.330;2023-04-01T06:35:21;98739.78;;;10.45;97.43
11525;BME280;5819;49.648;8.330;2023-04-01T06:44:30;98746.34;;;10.50;99.72
11525;BME280;5819;49.648;8.330;2023-04-01T06:47:30;98749.56;;;10.41;99.21
11525;BME280;5819;49.648;8.330;2023-04-01T06:50:28;98745.41;;;10.39;100.00
11525;BME280;5819;49.648;8.330;2023-04-01T06:53:21;98739.78;;;10.57;99.58
11525;BME280;5819;49.648;8.330;2023-04-01T06:56:10;98741.47;;;10.46;100.00
11525;BME280;5819;49.648;8.330;2023-04-01T06:58:53;98746.97;;;10.54;100.00
11525;BME280;5819;49.648;8.330;2023-04-01T07:01:28;98743.00;;;10.48;100.00
11525;BME280;5819;49.648;8.330;2023-04-01T07:04:00;98741.03;;;10.52;100.00
11525;BME280;5819;49.648;8.330;2023-04-01T07:06:39;98734.06;;;10.65;100.00
11525;BME280;5819;49.648;8.330;2023-04-01T07:09:13;98725.56;;;10.50;100.00
11525;BME280;5819;49.648;8.330;2023-04-01T07:12:10;98737.28;;;10.56;100.00
11525;BME280;5819;49.648;8.330;2023-04-01T07:15:04;98730.75;;;10.63;100.00
11525;BME280;5819;49.648;8.330;2023-04-01T07:17:41;98728.56;;;10.57;100.00
11525;BME280;5819;49.648;8.330;2023-04-01T07:20:16;98730.84;;;10.74;100.00
11525;BME280;5819;49.648;8.330;2023-04-01T07:22:49;98723.44;;;10.80;100.00
11525;BME280;5819;49.648;8.330;2023-04-01T07:25:36;98731.72;;;10.98;100.00
11525;BME280;5819;49.648;8.330;2023-04-01T07:28:22;98728.16;;;11.12;100.00
11525;BME280;5819;49.648;8.330;2023-04-01T07:31:07;98733.22;;;11.26;100.00
11525;BME280;5819;49.648;8.330;2023-04-01T07:33:44;98739.16;;;11.15;99.61
11525;BME280;5819;49.648;8.330;2023-04-01T07:36:19;98737.41;;;11.16;100.00
11525;BME280;5819;49.648;8.330;2023-04-01T07:38:59;98741.09;;;11.01;99.94
11525;BME280;5819;49.648;8.330;2023-04-01T07:41:53;98747.56;;;10.83;100.00
11525;BME280;5819;49.648;8.330;2023-04-01T07:44:28;98742.63;;;11.03;100.00
11525;BME280;5819;49.648;8.330;2023-04-01T07:47:20;98749.81;;;11.00;100.00
11525;BME280;5819;49.648;8.330;2023-04-01T07:50:02;98755.75;;;11.02;100.00
11525;BME280;5819;49.648;8.330;2023-04-01T07:52:41;98749.50;;;11.04;100.00
11525;BME280;5819;49.648;8.330;2023-04-01T07:55:23;98748.72;;;10.91;100.00
11525;BME280;5819;49.648;8.330;2023-04-01T07:58:04;98750.63;;;11.13;100.00
11525;BME280;5819;49.648;8.330;2023-04-01T08:00:48;98749.81;;;11.00;100.00
11525;BME280;5819;49.648;8.330;2023-04-01T08:03:48;98754.63;;;10.93;100.00
11525;BME280;5819;49.648;8.330;2023-04-01T08:06:24;98765.47;;;10.87;100.00
11525;BME280;5819;49.648;8.330;2023-04-01T08:09:01;98760.97;;;11.02;100.00
11525;BME280;5819;49.648;8.330;2023-04-01T08:11:57;98762.22;;;10.96;100.00
11525;BME280;5819;49.648;8.330;2023-04-01T08:14:58;98772.75;;;10.82;100.00
11525;BME280;5819;49.648;8.330;2023-04-01T08:17:35;98765.03;;;10.93;100.00
11525;BME280;5819;49.648;8.330;2023-04-01T08:20:18;98778.13;;;10.92;100.00
11525;BME280;5819;49.648;8.330;2023-04-01T08:22:58;98775.31;;;11.07;100.00
11525;BME280;5819;49.648;8.330;2023-04-01T08:25:37;98776.72;;;11.24;100.00
11525;BME280;5819;49.648;8.330;2023-04-01T08:28:15;98772.59;;;11.21;100.00
11525;BME280;5819;49.648;8.330;2023-04-01T08:30:48;98782.34;;;11.31;100.00
11525;BME280;5819;49.648;8.330;2023-04-01T08:33:21;98781.63;;;11.28;100.00
11525;BME280;5819;49.648;8.330;2023-04-01T08:35:59;98779.03;;;11.52;100.00
11525;BME280;5819;49.648;8.330;2023-04-01T08:38:34;98790.34;;;11.27;100.00
11525;BME280;5819;49.648;8.330;2023-04-01T08:41:25;98787.13;;;11.37;100.00
11525;BME280;5819;49.648;8.330;2023-04-01T08:44:37;98787.75;;;11.64;100.00
11525;BME280;5819;49.648;8.330;2023-04-01T08:47:38;98784.34;;;11.63;100.00
11525;BME280;5819;49.648;8.330;2023-04-01T08:50:39;98772.53;;;11.70;100.00
11525;BME280;5819;49.648;8.330;2023-04-01T08:53:41;98777.91;;;11.80;100.00
11525;BME280;5819;49.648;8.330;2023-04-01T08:56:18;98778.88;;;11.79;100.00
11525;BME280;5819;49.648;8.330;2023-04-01T08:58:59;98790.25;;;11.65;100.00
11525;BME280;5819;49.648;8.330;2023-04-01T09:05:20;98784.44;;;11.62;100.00
11525;BME280;5819;49.648;8.330;2023-04-01T09:08:00;98783.34;;;11.41;100.00
11525;BME280;5819;49.648;8.330;2023-04-01T09:10:49;98794.81;;;11.38;100.00
11525;BME280;5819;49.648;8.330;2023-04-01T09:13:57;98786.81;;;11.65;100.00
11525;BME280;5819;49.648;8.330;2023-04-01T09:16:50;98800.44;;;11.68;100.00
11525;BME280;5819;49.648;8.330;2023-04-01T09:19:35;98800.16;;;11.73;100.00
11525;BME280;5819;49.648;8.330;2023-04-01T09:22:22;98793.56;;;11.67;100.00
11525;BME280;5819;49.648;8.330;2023-04-01T09:25:21;98800.25;;;11.71;100.00
11525;BME280;5819;49.648;8.330;2023-04-01T09:27:57;98800.44;;;11.68;100.00
11525;BME280;5819;49.648;8.330;2023-04-01T09:30:37;98812.03;;;11.64;100.00
11525;BME280;5819;49.648;8.330;2023-04-01T09:33:43;98813.50;;;11.56;100.00
11525;BME280;5819;49.648;8.330;2023-04-01T09:36:26;98805.47;;;11.71;100.00
11525;BME280;5819;49.648;8.330;2023-04-01T09:39:09;98813.63;;;11.54;100.00
11525;BME280;5819;49.648;8.330;2023-04-01T09:41:57;98817.00;;;11.67;
11525;BME280;5819;49.648;8.330;2023-04-01T09:44:47;98808.72;;;11.75;100.00
11525;BME280;5819;49.648;8.330;2023-04-01T09:47:29;98810.16;;;11.66;100.00
11525;BME280;5819;49.648;8.330;2023-04-01T09:50:25;98818.56;;;11.83;100.00
11525;BME280;5819;49.648;8.330;2023-04-01T09:53:11;98813.91;;;11.75;100.00
11525;BME280;5819;49.648;8.330;2023-04-01T09:56:03;98818.91;;;11.65;100.00
11525;BME280;5819;49.648;8.330;2023-04-01T10:05:38;98818.53;;;11.95;100.00
11525;BME280;5819;49.648;8.330;2023-04-01T10:08:36;98821.72;;;11.99;100.00
11525;BME280;5819;49.648;8.330;2023-04-01T10:11:47;98816.38;;;12.00;100.00
11525;BME280;5819;49.648;8.330;2023-04-01T10:17:49;98823.31;;;12.12;100.00
11525;BME280;5819;49.648;8.330;2023-04-01T10:20:44;98825.91;;;12.12;100.00
11525;BME280;5819;49.648;8.330;2023-04-01T10:23:38;98824.75;;;12.16;100.00
11525;BME280;5819;49.648;8.330;2023-04-01T10:26:36;98831.81;;;12.03;100.00
11525;BME280;5819;49.648;8.330;2023-04-01T10:29:58;98827.56;;;12.02;100.00
11525;BME280;5819;49.648;8.330;2023-04-01T10:36:19;98824.59;;;12.31;100.00
11525;BME280;5819;49.648;8.330;2023-04-01T10:39:24;98827.53;;;12.26;100.00
11525;BME280;5819;49.648;8.330;2023-04-01T10:45:50;98829.91;;;12.29;100.00
11525;BME280;5819;49.648;8.330;2023-04-01T10:48:50;98836.84;;;12.17;100.00
11525;BME280;5819;49.648;8.330;2023-04-01T10:51:45;98827.34;;;12.16;100.00
11525;BME280;5819;49.648;8.330;2023-04-01T10:54:46;98831.81;;;12.27;100.00
11525;BME280;5819;49.648;8.330;2023-04-01T11:01:44;98816.94;;;12.51;100.00
11525;BME280;5819;49.648;8.330;2023-04-01T11:08:17;98832.63;;;12.28;100.00
11525;BME280;5819;49.648;8.330;2023-04-01T11:14:30;98829.81;;;12.31;100.00
11525;BME280;5819;49.648;8.330;2023-04-01T11:17:20;98827.38;;;12.51;100.00
11525;BME280;5819;49.648;8.330;2023-04-01T11:20:28;98826.56;;;12.62;100.00
11525;BME280;5819;49.648;8.330;2023-04-01T11:23:19;98837.16;;;12.37;100.00
11525;BME280;5819;49.648;8.330;2023-04-01T11:26:06;98832.59;;;12.51;100.00
11525;BME280;5819;49.648;8.330;2023-04-01T11:29:06;98829.94;;;12.75;100.00
11525;BME280;5819;49.648;8.330;2023-04-01T11:31:52;98834.66;;;12.81;100.00
11525;BME280;5819;49.648;8.330;2023-04-01T11:34:48;98840.97;;;12.90;98.30
11525;BME280;5819;49.648;8.330;2023-04-01T11:37:29;98833.88;;;13.36;98.58
11525;BME280;5819;49.648;8.330;2023-04-01T11:40:31;98839.38;;;13.11;97.92
11525;BME280;5819;49.648;8.330;2023-04-01T11:43:29;98850.06;;;12.84;98.68
11525;BME280;5819;49.648;8.330;2023-04-01T11:46:25;98846.78;;;12.93;98.57
11525;BME280;5819;49.648;8.330;2023-04-01T11:49:07;98849.47;;;12.81;98.22
11525;BME280;5819;49.648;8.330;2023-04-01T11:52:06;98839.53;;;13.08;97.81
11525;BME280;5819;49.648;8.330;2023-04-01T11:57:57;98857.22;;;13.04;96.77
11525;BME280;5819;49.648;8.330;2023-04-01T12:00:56;98853.06;;;12.91;96.00
11525;BME280;5819;49.648;8.330;2023-04-01T12:03:51;98856.88;;;12.98;95.17
11525;BME280;5819;49.648;8.330;2023-04-01T12:06:35;98858.22;;;13.15;93.61
11525;BME280;5819;49.648;8.330;2023-04-01T12:09:16;98860.16;;;13.24;92.69
11525;BME280;5819;49.648;8.330;2023-04-01T12:11:56;98863.19;;;13.06;92.03
11525;BME280;5819;49.648;8.330;2023-04-01T12:14:38;98863.31;;;13.16;92.82
11525;BME280;5819;49.648;8.330;2023-04-01T12:17:21;98856.78;;;12.99;92.32
11525;BME280;5819;49.648;8.330;2023-04-01T12:20:09;98868.16;;;13.09;91.89
11525;BME280;5819;49.648;8.330;2023-04-01T12:22:50;98864.81;;;12.96;91.57
11525;BME280;5819;49.648;8.330;2023-04-01T12:25:39;98869.63;;;13.25;91.93
11525;BME280;5819;49.648;8.330;2023-04-01T12:28:19;98867.25;;;13.10;91.65
11525;BME280;5819;49.648;8.330;2023-04-01T12:31:03;98862.72;;;13.12;90.30
11525;BME280;5819;49.648;8.330;2023-04-01T12:33:48;98860.16;;;13.24;91.82
11525;BME280;5819;49.648;8.330;2023-04-01T12:36:33;98867.28;;;13.44;91.20
11525;BME280;5819;49.648;8.330;2023-04-01T12:39:17;98854.44;;;13.19;90.45
11525;BME280;5819;49.648;8.330;2023-04-01T12:41:56;98862.34;;;13.06;89.32
11525;BME280;5819;49.648;8.330;2023-04-01T12:50:22;98874.56;;;13.05;88.87
11525;BME280;5819;49.648;8.330;2023-04-01T12:53:02;98880.72;;;13.04;89.22
11525;BME280;5819;49.648;8.330;2023-04-01T12:55:38;98877.34;;;12.80;89.82
11525;BME280;5819;49.648;8.330;2023-04-01T13:01:49;98885.00;;;13.05;89.86
11525;BME280;5819;49.648;8.330;2023-04-01T13:04:39;98885.06;;;12.71;90.49
11525;BME280;5819;49.648;8.330;2023-04-01T13:07:24;98893.47;;;12.74;91.41
11525;BME280;5819;49.648;8.330;2023-04-01T13:10:01;98893.16;;;12.79;91.28
11525;BME280;5819;49.648;8.330;2023-04-01T13:12:44;98908.63;;;12.69;92.33
11525;BME280;5819;49.648;8.330;2023-04-01T13:15:24;98898.19;;;12.58;93.21
11525;BME280;5819;49.648;8.330;2023-04-01T13:17:59;98906.75;;;12.71;94.14
11525;BME280;5819;49.648;8.330;2023-04-01T13:20:42;98906.28;;;12.77;94.04
11525;BME280;5819;49.648;8.330;2023-04-01T13:23:24;98907.97;;;12.78;94.91
11525;BME280;5819;49.648;8.330;2023-04-01T13:26:06;98914.53;;;12.60;95.54
11525;BME280;5819;49.648;8.330;2023-04-01T13:28:47;98908.31;;;12.74;95.25
11525;BME280;5819;49.648;8.330;2023-04-01T13:31:29;98915.25;;;12.62;96.11
11525;BME280;5819;49.648;8.330;2023-04-01T13:34:13;98921.16;;;12.53;96.22
11525;BME280;5819;49.648;8.330;2023-04-01T13:36:58;98913.59;;;12.61;97.11
11525;BME280;5819;49.648;8.330;2023-04-01T13:39:39;98918.47;;;12.65;95.75
11525;BME280;5819;49.648;8.330;2023-04-01T13:42:16;98911.59;;;12.64;95.23
11525;BME280;5819;49.648;8.330;2023-04-01T13:44:53;98923.47;;;12.68;94.44
11525;BME280;5819;49.648;8.330;2023-04-01T13:51:10;98927.03;;;12.68;94.94
11525;BME280;5819;49.648;8.330;2023-04-01T13:56:48;98925.75;;;12.84;93.23
11525;BME280;5819;49.648;8.330;2023-04-01T13:59:56;98928.00;;;12.78;93.17
11525;BME280;5819;49.648;8.330;2023-04-01T14:02:49;98935.41;;;12.60;92.26
11525;BME280;5819;49.648;8.330;2023-04-01T14:05:35;98938.06;;;12.71;92.71
11525;BME280;5819;49.648;8.330;2023-04-01T14:08:20;98950.34;;;12.58;93.51
11525;BME280;5819;49.648;8.330;2023-04-01T14:11:07;98944.84;;;12.50;95.81
11525;BME280;5819;49.648;8.330;2023-04-01T14:13:43;98945.09;;;12.47;96.99
11525;BME280;5819;49.648;8.330;2023-04-01T14:16:38;98952.13;;;12.34;97.54
11525;BME280;5819;49.648;8.330;2023-04-01T14:19:23;98946.72;;;12.24;98.54
11525;BME280;5819;49.648;8.330;2023-04-01T14:21:59;98943.19;;;12.25;99.76
11525;BME280;5819;49.648;8.330;2023-04-01T14:24:45;98944.94;;;12.25;100.00
11525;BME280;5819;49.648;8.330;2023-04-01T14:27:37;98945.28;;;12.20;100.00
11525;BME280;5819;49.648;8.330;2023-04-01T14:30:31;98947.34;;;12.28;100.00
11525;BME280;5819;49.648;8.330;2023-04-01T14:33:15;98943.69;;;12.30;100.00
11525;BME280;5819;49.648;8.330;2023-04-01T14:35:55;98948.16;;;12.04;100.00
11525;BME280;5819;49.648;8.330;2023-04-01T14:38:47;98958.19;;;11.98;100.00
11525;BME280;5819;49.648;8.330;2023-04-01T14:41:28;98963.72;;;11.81;100.00
11525;BME280;5819;49.648;8.330;2023-04-01T14:44:17;98972.06;;;11.86;100.00
11525;BME280;5819;49.648;8.330;2023-04-01T14:47:09;98970.91;;;11.90;100.00
11525;BME280;5819;49.648;8.330;2023-04-01T14:49:41;98972.38;;;11.94;100.00
11525;BME280;5819;49.648;8.330;2023-04-01T14:52:14;98966.84;;;11.86;100.00
11525;BME280;5819;49.648;8.330;2023-04-01T14:54:44;98976.97;;;11.90;100.00
11525;BME280;5819;49.648;8.330;2023-04-01T14:57:23;98972.03;;;12.11;100.00
11525;BME280;5819;49.648;8.330;2023-04-01T15:00:00;98976.28;;;12.36;100.00
11525;BME280;5819;49.648;8.330;2023-04-01T15:02:47;98976.81;;;12.41;99.51
11525;BME280;5819;49.648;8.330;2023-04-01T15:05:31;98969.81;;;12.41;97.60
11525;BME280;5819;49.648;8.330;2023-04-01T15:08:17;98977.09;;;12.49;96.02
11525;BME280;5819;49.648;8.330;2023-04-01T15:11:20;98989.13;;;12.39;95.09
11525;BME280;5819;49.648;8.330;2023-04-01T15:17:04;98981.00;;;12.43;94.73